首页
METAR-TAF:

METAR-TAF

机场 :

杰尔, 匈牙利

纬度: 47-37-28N, 经度: 017-48-49E, 海拔: 129米

当前天气观测

该预报发布于29分钟前的11:45 UTC
风速13节,风向西北
温度 7°C
湿度 49%
气压 1007 hPa
能见度10公里或以上
1500米以下无云,无积雨云

METAR: LHPR 271145Z AUTO 31013KT CAVOK 07/M03 Q1007

时间: 13:14 (12:14 UTC)

预报

该预报发布于59分钟前的11:15 UTC
预报有效从27日的 12点(UTC)到 27日的 21点(UTC)
风速14节,风向西转西北,有时为24节阵风
能见度10公里或以上
1500米以下无云,无积雨云
短暂存在
从 27日的 12点(UTC)到 27日的 16点(UTC)
散云层高于4000英尺
成为
从 27日的 12点(UTC)到 27日的 15点(UTC)
风速10节,风向西转西南
成为
从 27日的 16点(UTC)到 27日的 19点(UTC)
风速12节,风向
短暂存在
从 27日的 19点(UTC)到 27日的 21点(UTC)
风速16节,风向,有时为26节阵风

TAF: LHPR 271115Z 2712/2721 30014G24KT CAVOK TEMPO 2712/2716 SCT040 BECMG 2712/2715 24010KT BECMG 2716/2719 17012KT TEMPO 2719/2721 17016G26KT

超过4000个机场的气象观测和天气预报(METAR&TAF报告)。

可查询的气象台以黄色和红色小点在地图上表示。

将鼠标移到小点上方,可查看气象台名称。

然后点击查看天气观测和预报。

如需切换地图:点击带黑十字的绿色按钮放大地图;点击带横线的绿色按钮缩小地图;或者点击绿色箭头查看邻近地区的地图。


METAR-TAF: